Terminal Aerodrome Forecast
Issued by NWS

Home | Current Version | Previous Version | Text Only | Print | Product List | Glossary On
Versions: 1 2 3 4 5 6 7 8 9 10 11 12 13 14 15 16 17
000
FTAK31 PAJN 250500
TAFASI
TAF
PASI 250527Z 2506/2606 11008KT P6SM -RA BKN035 OVC060
     FM250900 12008KT 5SM -RA BR BKN025 OVC035
     FM251600 11004KT P6SM -RA BKN015 OVC020
     FM252100 10004KT P6SM VCSH SCT015 BKN030=

USA.gov is the U.S. government's official web portal to all federal, state and local government web resources and services.